Time;durP1;ratioP1;P1;durP2;ratioP2;P2;SDS_P1;SDS_P2;PMS_P1;PMS_P2;Temp;Humidity;BMP_temperature;BMP_pressure;BME280_temperature;BME280_humidity;BME280_pressure;Samples;Min_cycle;Max_cycle;Signal;HPM_P1;HPM_P2
2021/12/28 00:01:00;;;;;;;13.57;8.88;;;;;;;-0.50;76.09;99494.75;5019062;28;20036;-47
2021/12/28 00:03:25;;;;;;;11.03;7.83;;;;;;;-0.48;75.70;99495.66;5026583;28;20084;-46
2021/12/28 00:05:51;;;;;;;10.85;8.15;;;;;;;-0.49;75.79;99493.94;5025272;28;20499;-47
2021/12/28 00:08:19;;;;;;;13.88;8.07;;;;;;;-0.49;75.62;99499.13;5013245;28;20028;-46
2021/12/28 00:10:51;;;;;;;13.00;9.00;;;;;;;-0.49;75.72;99493.94;5023460;28;20483;-46
2021/12/28 00:13:22;;;;;;;11.63;7.43;;;;;;;-0.47;75.68;99505.19;5036270;28;20056;-50
2021/12/28 00:16:00;;;;;;;8.93;7.35;;;;;;;-0.47;75.70;99493.97;5038065;28;20021;-48
2021/12/28 00:18:27;;;;;;;9.35;6.70;;;;;;;-0.48;75.86;99498.25;5019375;28;20475;-46
2021/12/28 00:20:55;;;;;;;9.23;7.78;;;;;;;-0.48;75.44;99490.50;5031576;28;20155;-49
2021/12/28 00:23:28;;;;;;;10.43;7.97;;;;;;;-0.46;75.80;99490.53;5038022;28;20025;-46
2021/12/28 00:25:54;;;;;;;10.38;7.82;;;;;;;-0.47;75.63;99487.03;5032351;28;20020;-48
2021/12/28 00:28:21;;;;;;;11.25;7.90;;;;;;;-0.46;75.70;99481.03;5039911;28;20032;-48
2021/12/28 00:30:47;;;;;;;10.65;7.70;;;;;;;-0.46;76.11;99486.22;5018807;28;20033;-46
2021/12/28 00:33:13;;;;;;;10.60;7.78;;;;;;;-0.45;75.79;99484.47;5030435;28;20037;-47
2021/12/28 00:35:40;;;;;;;9.95;7.43;;;;;;;-0.44;75.82;99484.50;4997315;28;20021;-46
2021/12/28 00:38:07;;;;;;;11.02;7.45;;;;;;;-0.45;75.89;99482.78;5021556;28;20029;-51
2021/12/28 00:40:33;;;;;;;12.15;8.73;;;;;;;-0.44;76.01;99483.63;5021345;28;20448;-46
2021/12/28 00:42:59;;;;;;;10.57;7.50;;;;;;;-0.44;75.46;99476.75;5031888;28;20383;-46
2021/12/28 00:45:24;;;;;;;11.30;8.07;;;;;;;-0.45;75.59;99477.59;5034029;28;20021;-50
2021/12/28 00:47:53;;;;;;;11.15;7.72;;;;;;;-0.44;75.87;99474.16;5023126;28;20029;-46
2021/12/28 00:50:19;;;;;;;10.02;7.65;;;;;;;-0.43;75.37;99475.88;5020507;28;20479;-49
2021/12/28 00:52:46;;;;;;;9.73;7.30;;;;;;;-0.43;75.47;99470.69;5034036;28;20029;-46
2021/12/28 00:55:13;;;;;;;9.18;7.47;;;;;;;-0.43;75.92;99464.66;5037514;28;20017;-45
2021/12/28 00:57:39;;;;;;;8.48;7.13;;;;;;;-0.43;75.62;99469.84;5038170;28;20068;-47
2021/12/28 01:00:10;;;;;;;9.85;7.22;;;;;;;-0.42;76.01;99469.88;5035393;28;20581;-46
2021/12/28 01:02:35;;;;;;;9.15;7.03;;;;;;;-0.42;76.00;99454.34;5039631;28;20480;-45
2021/12/28 01:05:01;;;;;;;9.18;7.47;;;;;;;-0.42;76.09;99467.28;5039891;28;20087;-48
2021/12/28 01:07:26;;;;;;;9.15;6.53;;;;;;;-0.40;75.80;99465.56;5036645;28;20120;-46
2021/12/28 01:09:52;;;;;;;9.73;7.82;;;;;;;-0.40;76.00;99470.75;5041097;28;20060;-47
2021/12/28 01:12:17;;;;;;;9.63;7.35;;;;;;;-0.40;75.48;99470.75;5019654;28;20067;-47
2021/12/28 01:14:43;;;;;;;8.07;7.15;;;;;;;-0.40;75.41;99459.53;5037206;28;20060;-47
2021/12/28 01:17:11;;;;;;;7.72;6.72;;;;;;;-0.39;75.64;99448.31;5037643;28;20025;-46
2021/12/28 01:19:36;;;;;;;8.75;6.53;;;;;;;-0.39;75.32;99456.94;5041915;28;20036;-49
2021/12/28 01:22:04;;;;;;;9.82;7.18;;;;;;;-0.41;75.93;99437.94;5034308;28;20460;-45
2021/12/28 01:24:30;;;;;;;9.63;6.85;;;;;;;-0.41;75.93;99432.75;5040203;28;20116;-45
2021/12/28 01:26:56;;;;;;;7.90;6.82;;;;;;;-0.39;76.14;99436.22;5036005;28;20057;-45
2021/12/28 01:29:21;;;;;;;7.90;6.57;;;;;;;-0.39;75.50;99435.38;5021212;28;20034;-46
2021/12/28 01:31:46;;;;;;;10.25;6.97;;;;;;;-0.39;76.02;99428.44;5042814;28;20047;-47
2021/12/28 01:34:12;;;;;;;10.50;7.10;;;;;;;-0.38;75.76;99426.75;5035744;28;20032;-50
2021/12/28 01:36:37;;;;;;;9.30;6.30;;;;;;;-0.40;75.54;99426.72;5035251;28;20021;-46
2021/12/28 01:39:06;;;;;;;9.00;6.70;;;;;;;-0.37;75.62;99430.22;5038948;28;20029;-47
2021/12/28 01:41:32;;;;;;;9.77;7.30;;;;;;;-0.39;75.83;99418.06;5034924;28;20030;-47
2021/12/28 01:44:00;;;;;;;10.00;6.20;;;;;;;-0.37;75.54;99427.63;5028649;28;20395;-47
2021/12/28 01:46:25;;;;;;;12.00;7.90;;;;;;;-0.37;75.50;99428.47;5037214;28;20026;-48
2021/12/28 01:48:51;;;;;;;12.18;8.05;;;;;;;-0.36;76.13;99430.25;5032259;28;20030;-48
2021/12/28 01:51:21;;;;;;;9.75;7.00;;;;;;;-0.36;75.58;99419.00;5037238;28;20164;-46
2021/12/28 01:53:49;;;;;;;8.20;6.82;;;;;;;-0.37;75.67;99418.09;5043056;28;20091;-46
2021/12/28 01:56:22;;;;;;;11.98;7.22;;;;;;;-0.36;76.00;99413.81;5021629;28;20027;-47
2021/12/28 01:58:49;;;;;;;10.60;6.40;;;;;;;-0.34;75.63;99417.31;5032536;28;20025;-49
2021/12/28 02:01:22;;;;;;;8.43;5.97;;;;;;;-0.35;75.80;99411.25;5037193;28;20120;-46
2021/12/28 02:03:47;;;;;;;8.48;5.93;;;;;;;-0.34;76.06;99410.38;5033991;28;20025;-46
2021/12/28 02:06:13;;;;;;;9.45;7.07;;;;;;;-0.34;75.64;99396.56;5032808;28;20025;-47
2021/12/28 02:08:39;;;;;;;8.93;6.97;;;;;;;-0.34;75.76;99396.56;5034884;28;20463;-47
2021/12/28 02:14:29;;;;;;;10.13;6.93;;;;;;;-0.33;76.02;99367.22;5036757;28;20113;-46
2021/12/28 02:16:55;;;;;;;11.55;6.90;;;;;;;-0.34;76.08;99357.72;5029986;28;20032;-47
2021/12/28 02:19:23;;;;;;;9.32;6.80;;;;;;;-0.34;76.06;99366.34;5023200;28;20036;-45
2021/12/28 02:21:48;;;;;;;8.65;6.18;;;;;;;-0.33;75.59;99356.84;5033840;28;20026;-46
2021/12/28 02:24:14;;;;;;;9.52;6.80;;;;;;;-0.33;75.97;99351.69;5035491;28;20036;-48
2021/12/28 02:26:39;;;;;;;8.38;6.65;;;;;;;-0.32;75.34;99353.41;5038880;28;20037;-47
2021/12/28 02:29:05;;;;;;;8.93;6.25;;;;;;;-0.32;76.04;99348.22;5035673;28;20025;-48
2021/12/28 02:31:31;;;;;;;9.85;6.07;;;;;;;-0.32;75.44;99348.22;5038534;28;20091;-47
2021/12/28 02:33:57;;;;;;;9.82;7.07;;;;;;;-0.31;75.73;99342.19;5038624;28;20037;-46
2021/12/28 02:36:22;;;;;;;8.07;6.50;;;;;;;-0.31;75.61;99342.19;5034541;28;20490;-46
2021/12/28 02:38:47;;;;;;;9.35;7.22;;;;;;;-0.33;75.94;99336.97;5038392;28;20051;-47
2021/12/28 02:41:15;;;;;;;10.05;6.80;;;;;;;-0.30;76.05;99341.34;5034019;28;20104;-46
2021/12/28 02:43:45;;;;;;;8.30;6.22;;;;;;;-0.31;75.75;99344.78;5015431;28;20034;-46
2021/12/28 02:46:11;;;;;;;9.93;7.03;;;;;;;-0.30;75.74;99346.53;5036565;28;20035;-51
2021/12/28 02:48:37;;;;;;;10.10;7.07;;;;;;;-0.29;75.52;99353.44;5032635;28;20034;-47
2021/12/28 02:51:09;;;;;;;8.68;6.13;;;;;;;-0.30;75.87;99356.91;5032366;28;20029;-47
2021/12/28 02:53:35;;;;;;;9.00;6.50;;;;;;;-0.28;76.19;99370.75;5037182;28;20126;-46
2021/12/28 02:56:00;;;;;;;9.65;6.93;;;;;;;-0.28;76.30;99366.44;5038563;28;20490;-47
2021/12/28 02:58:32;;;;;;;8.55;6.60;;;;;;;-0.27;76.08;99372.47;5036418;28;20022;-50
2021/12/28 03:01:08;;;;;;;9.90;7.50;;;;;;;-0.28;75.94;99370.75;5035941;28;20052;-47
2021/12/28 03:03:34;;;;;;;9.20;7.45;;;;;;;-0.27;76.21;99372.47;5033603;28;20040;-49
2021/12/28 03:06:01;;;;;;;8.75;6.78;;;;;;;-0.26;75.92;99376.81;5041659;28;20472;-49
2021/12/28 03:08:30;;;;;;;12.07;6.60;;;;;;;-0.26;76.01;99369.06;5040373;28;20071;-46
2021/12/28 03:10:56;;;;;;;8.70;6.15;;;;;;;-0.29;75.82;99353.44;5039603;28;20613;-47
2021/12/28 03:13:30;;;;;;;9.30;6.85;;;;;;;-0.26;75.67;99356.09;5033328;28;20505;-45
2021/12/28 03:15:55;;;;;;;8.00;6.20;;;;;;;-0.29;75.79;99343.09;5035521;28;20025;-46
2021/12/28 03:18:21;;;;;;;9.82;6.82;;;;;;;-0.26;75.95;99353.50;5041029;28;20073;-45
2021/12/28 03:20:47;;;;;;;11.18;8.13;;;;;;;-0.25;75.86;99360.41;5033182;28;20033;-47
2021/12/28 03:23:14;;;;;;;10.93;7.25;;;;;;;-0.25;75.62;99360.41;5036594;28;20029;-46
2021/12/28 03:25:40;;;;;;;9.75;6.57;;;;;;;-0.24;75.56;99346.59;5020934;28;20033;-47
2021/12/28 03:28:05;;;;;;;11.48;7.60;;;;;;;-0.24;76.19;99351.78;5033009;28;20032;-48
2021/12/28 03:30:31;;;;;;;9.73;7.93;;;;;;;-0.23;75.60;99347.50;5027373;28;20427;-46
2021/12/28 03:32:56;;;;;;;9.98;7.40;;;;;;;-0.24;76.09;99351.78;5038577;28;20021;-45
2021/12/28 03:35:21;;;;;;;8.73;6.80;;;;;;;-0.23;75.75;99335.41;5035386;28;20033;-45
2021/12/28 03:37:47;;;;;;;12.82;7.70;;;;;;;-0.23;76.13;99338.00;5028151;28;20028;-45
2021/12/28 03:40:15;;;;;;;10.77;7.28;;;;;;;-0.22;76.29;99331.06;5024464;28;20036;-46
2021/12/28 03:42:41;;;;;;;11.35;6.70;;;;;;;-0.22;75.50;99328.47;5032071;28;20032;-46
2021/12/28 03:45:09;;;;;;;10.98;6.93;;;;;;;-0.23;75.88;99322.44;5000042;28;20403;-47
2021/12/28 03:47:34;;;;;;;9.55;7.13;;;;;;;-0.23;76.13;99316.38;5035902;28;20063;-49
2021/12/28 03:50:00;;;;;;;11.10;7.72;;;;;;;-0.21;76.15;99319.84;5034926;28;20065;-45
2021/12/28 03:52:25;;;;;;;10.05;7.05;;;;;;;-0.22;75.92;99318.13;5036494;28;20492;-45
2021/12/28 03:54:50;;;;;;;13.50;8.32;;;;;;;-0.23;75.83;99319.88;5028710;28;20447;-46
2021/12/28 03:57:16;;;;;;;10.77;7.63;;;;;;;-0.21;76.19;99320.72;5039756;28;20079;-46
2021/12/28 03:59:41;;;;;;;11.48;7.63;;;;;;;-0.21;76.14;99317.25;5029244;28;20033;-47
2021/12/28 04:02:06;;;;;;;10.80;7.80;;;;;;;-0.20;76.17;99312.09;5038677;28;20025;-50
2021/12/28 04:04:32;;;;;;;12.13;8.43;;;;;;;-0.20;75.72;99316.44;5020034;28;20029;-54
2021/12/28 04:06:57;;;;;;;11.40;8.25;;;;;;;-0.21;76.16;99310.38;5038454;28;20051;-45
2021/12/28 04:09:45;;;;;;;11.35;7.82;;;;;;;-0.20;76.06;99316.44;5039507;28;20024;-48
2021/12/28 04:12:08;;;;;;;12.77;7.95;;;;;;;-0.19;75.94;99319.03;5037720;28;20124;-47
2021/12/28 04:14:33;;;;;;;9.85;7.43;;;;;;;-0.19;76.28;99319.03;5034281;28;20107;-45
2021/12/28 04:16:59;;;;;;;9.45;6.50;;;;;;;-0.19;76.09;99313.88;5031910;28;20037;-46
2021/12/28 04:19:24;;;;;;;12.95;8.07;;;;;;;-0.19;75.93;99313.88;5035718;28;20475;-46
2021/12/28 04:21:49;;;;;;;10.32;7.07;;;;;;;-0.18;76.24;99310.41;5030964;28;20068;-47
2021/12/28 04:24:15;;;;;;;10.07;7.93;;;;;;;-0.17;76.26;99309.56;5031687;28;20476;-46
2021/12/28 04:26:40;;;;;;;16.25;9.07;;;;;;;-0.18;75.82;99305.22;5032415;28;20033;-46
2021/12/28 04:29:05;;;;;;;9.88;6.90;;;;;;;-0.16;75.75;99315.63;5031373;28;20033;-48
2021/12/28 04:31:31;;;;;;;10.80;7.47;;;;;;;-0.17;75.86;99306.97;5027420;28;20396;-46
2021/12/28 04:33:56;;;;;;;9.77;7.35;;;;;;;-0.16;76.25;99303.50;5039924;28;20029;-46
2021/12/28 04:36:24;;;;;;;9.77;6.55;;;;;;;-0.18;75.93;99302.63;5035352;28;20486;-46
2021/12/28 04:38:49;;;;;;;12.25;7.93;;;;;;;-0.16;76.21;99300.91;5030783;28;20033;-46
2021/12/28 04:41:15;;;;;;;11.60;7.15;;;;;;;-0.14;75.89;99300.94;5027417;28;20535;-47
2021/12/28 04:43:45;;;;;;;11.10;8.10;;;;;;;-0.14;75.88;99301.81;5031516;28;20030;-47
2021/12/28 04:46:10;;;;;;;11.65;7.50;;;;;;;-0.15;76.02;99297.50;5018995;28;20108;-47
2021/12/28 04:48:36;;;;;;;11.98;7.93;;;;;;;-0.13;75.82;99290.59;5004598;28;20083;-54
2021/12/28 04:51:01;;;;;;;9.35;7.88;;;;;;;-0.14;76.20;99281.09;5026821;28;20108;-46
2021/12/28 04:53:27;;;;;;;14.55;8.68;;;;;;;-0.13;75.78;99282.81;5034262;28;20025;-47
2021/12/28 04:55:52;;;;;;;10.65;7.78;;;;;;;-0.13;75.75;99281.97;5024336;28;20033;-48
2021/12/28 04:58:19;;;;;;;14.23;8.60;;;;;;;-0.14;76.24;99281.09;5019100;28;20484;-46
2021/12/28 05:00:46;;;;;;;11.80;7.68;;;;;;;-0.14;76.23;99278.50;5023742;28;20025;-46
2021/12/28 05:03:12;;;;;;;13.02;7.97;;;;;;;-0.15;75.89;99279.34;5021738;28;20025;-46
2021/12/28 05:05:43;;;;;;;10.05;7.15;;;;;;;-0.13;75.93;99269.84;5024024;28;20480;-46
2021/12/28 05:08:10;;;;;;;11.52;7.80;;;;;;;-0.12;76.19;99270.75;5027465;28;20668;-46
2021/12/28 05:10:36;;;;;;;12.40;8.60;;;;;;;-0.12;75.93;99262.97;5021783;28;20037;-49
2021/12/28 05:13:01;;;;;;;13.55;8.68;;;;;;;-0.10;75.70;99266.44;5020470;28;20108;-46
2021/12/28 05:15:26;;;;;;;11.25;8.38;;;;;;;-0.12;76.12;99257.78;5022732;28;20074;-46
2021/12/28 05:17:52;;;;;;;13.70;8.18;;;;;;;-0.10;76.33;99262.97;5029835;28;20029;-46
2021/12/28 05:20:17;;;;;;;12.13;7.85;;;;;;;-0.09;75.82;99251.75;5033866;28;20025;-46
2021/12/28 05:22:42;;;;;;;10.45;7.72;;;;;;;-0.10;76.11;99250.03;5025356;28;20033;-46
2021/12/28 05:25:10;;;;;;;11.32;8.25;;;;;;;-0.09;76.45;99254.34;5023567;28;20072;-48
2021/12/28 05:27:36;;;;;;;15.07;8.23;;;;;;;-0.09;75.83;99251.75;5023135;28;20483;-55
2021/12/28 05:30:03;;;;;;;11.88;8.30;;;;;;;-0.09;76.18;99244.88;5027541;28;20036;-46
2021/12/28 05:32:32;;;;;;;11.65;8.38;;;;;;;-0.07;76.09;99247.47;5031208;28;20047;-46
2021/12/28 05:34:57;;;;;;;12.60;8.43;;;;;;;-0.07;75.71;99242.28;5027193;28;20032;-46
2021/12/28 05:37:22;;;;;;;12.35;7.85;;;;;;;-0.08;75.95;99235.34;5032996;28;20491;-50
2021/12/28 05:39:48;;;;;;;12.73;8.02;;;;;;;-0.08;76.09;99236.22;5031874;28;20080;-51
2021/12/28 05:42:13;;;;;;;13.02;8.45;;;;;;;-0.07;76.22;99240.53;5016452;28;20021;-49
2021/12/28 05:44:38;;;;;;;11.10;8.32;;;;;;;-0.06;76.21;99241.44;5033751;28;20029;-50
2021/12/28 05:47:04;;;;;;;11.90;8.60;;;;;;;-0.06;75.85;99231.06;5032004;28;20025;-50
2021/12/28 05:49:36;;;;;;;14.10;9.32;;;;;;;-0.06;76.23;99236.25;5029671;28;20029;-50
2021/12/28 05:52:02;;;;;;;13.45;8.85;;;;;;;-0.06;75.87;99233.66;5025399;28;20399;-51
2021/12/28 05:54:27;;;;;;;12.07;8.43;;;;;;;-0.05;75.96;99230.19;5036596;28;20013;-50
2021/12/28 05:56:53;;;;;;;11.95;8.13;;;;;;;-0.05;75.88;99232.78;5017628;28;20022;-50
2021/12/28 05:59:18;;;;;;;14.13;8.93;;;;;;;-0.04;75.92;99237.13;5027689;28;20037;-51
2021/12/28 06:01:43;;;;;;;12.60;8.63;;;;;;;-0.05;76.11;99228.50;5015095;28;20041;-50
2021/12/28 06:04:12;;;;;;;12.52;8.27;;;;;;;-0.06;76.06;99215.50;5030966;28;20029;-50
2021/12/28 06:06:37;;;;;;;12.60;8.80;;;;;;;-0.05;75.93;99215.53;5035594;28;20116;-50
2021/12/28 06:09:03;;;;;;;13.63;9.35;;;;;;;-0.04;76.24;99209.47;5029613;28;20035;-50
2021/12/28 06:11:28;;;;;;;14.10;8.50;;;;;;;-0.04;76.28;99199.13;5035500;28;20117;-50
2021/12/28 06:13:53;;;;;;;11.80;8.07;;;;;;;-0.04;75.68;99209.47;5032105;28;20025;-49
2021/12/28 06:16:19;;;;;;;12.70;7.85;;;;;;;-0.04;76.20;99198.22;5039472;28;20032;-51
2021/12/28 06:18:50;;;;;;;12.85;8.43;;;;;;;-0.03;75.79;99216.41;5037614;28;20035;-50
2021/12/28 06:21:22;;;;;;;12.32;8.63;;;;;;;-0.02;76.12;99201.72;5018974;28;20075;-51
2021/12/28 06:23:48;;;;;;;11.75;8.10;;;;;;;-0.03;76.25;99205.19;5030992;28;20329;-50
2021/12/28 06:26:13;;;;;;;12.10;8.15;;;;;;;-0.03;76.30;99198.25;5033793;28;20036;-50
2021/12/28 06:28:38;;;;;;;11.98;7.95;;;;;;;-0.01;76.46;99211.22;5033893;28;20037;-49
2021/12/28 06:31:04;;;;;;;13.15;8.68;;;;;;;-0.01;75.77;99193.09;5025293;28;20538;-51
2021/12/28 06:33:35;;;;;;;12.48;8.63;;;;;;;-0.02;75.77;99196.53;5037541;28;20031;-50
2021/12/28 06:36:01;;;;;;;12.05;8.63;;;;;;;-0.03;76.45;99197.41;5032848;28;20113;-51
2021/12/28 06:38:29;;;;;;;13.50;8.98;;;;;;;-0.01;76.11;99195.69;5018228;28;20415;-50
2021/12/28 06:40:54;;;;;;;10.57;8.00;;;;;;;-0.02;75.88;99188.75;5029880;28;20499;-46
2021/12/28 06:43:20;;;;;;;13.07;8.35;;;;;;;-0.01;76.11;99191.38;5034378;28;20029;-50
2021/12/28 06:45:45;;;;;;;12.18;8.85;;;;;;;-0.01;76.01;99183.59;5031942;28;20018;-49
2021/12/28 06:48:13;;;;;;;10.75;7.80;;;;;;;0.00;75.72;99189.66;5032698;28;20036;-50
2021/12/28 06:50:39;;;;;;;11.57;7.75;;;;;;;0.00;75.63;99189.66;5037975;28;20095;-51
2021/12/28 06:53:05;;;;;;;11.02;7.25;;;;;;;0.00;75.84;99189.66;5015781;28;20025;-50
2021/12/28 06:55:30;;;;;;;13.82;8.32;;;;;;;0.01;76.09;99186.19;5008272;28;20067;-50
2021/12/28 06:57:55;;;;;;;11.38;7.93;;;;;;;0.02;75.70;99187.94;5033240;28;20499;-51
2021/12/28 07:00:21;;;;;;;11.25;7.30;;;;;;;0.02;76.10;99193.13;5030242;28;20456;-50
2021/12/28 07:02:49;;;;;;;10.63;7.60;;;;;;;0.00;75.77;99184.47;5031433;28;20024;-50
2021/12/28 07:05:15;;;;;;;13.15;7.75;;;;;;;0.02;75.87;99184.47;5035627;28;20079;-50
2021/12/28 07:07:40;;;;;;;10.93;8.02;;;;;;;0.03;76.17;99188.81;5039330;28;20037;-50
2021/12/28 07:10:07;;;;;;;10.77;7.72;;;;;;;0.02;76.18;99176.69;5032750;28;20038;-50
2021/12/28 07:12:35;;;;;;;12.27;7.78;;;;;;;0.02;75.65;99176.69;5036141;28;20033;-51
2021/12/28 07:15:00;;;;;;;13.45;8.60;;;;;;;0.02;76.08;99185.34;5035151;28;20028;-50
2021/12/28 07:17:27;;;;;;;11.88;7.45;;;;;;;0.03;75.96;99178.44;5028760;28;20403;-46
2021/12/28 07:19:53;;;;;;;10.77;7.60;;;;;;;0.03;75.91;99179.28;5032086;28;20056;-48
2021/12/28 07:22:18;;;;;;;12.50;8.40;;;;;;;0.04;75.93;99191.44;5027604;28;21829;-49
2021/12/28 07:24:43;;;;;;;13.38;7.85;;;;;;;0.00;76.04;99184.47;5042146;28;20036;-50
2021/12/28 07:27:10;;;;;;;11.77;8.05;;;;;;;0.05;75.91;99193.16;5032389;28;20057;-48
2021/12/28 07:29:35;;;;;;;11.90;8.35;;;;;;;0.05;76.32;99189.69;5035201;28;20029;-50
2021/12/28 07:32:03;;;;;;;10.77;8.35;;;;;;;0.05;75.77;99198.34;5013170;28;20061;-48
2021/12/28 07:34:31;;;;;;;10.43;7.97;;;;;;;0.06;76.32;99189.69;5036110;28;20475;-48
2021/12/28 07:36:57;;;;;;;9.57;7.15;;;;;;;0.06;76.34;99189.69;5034915;28;20037;-47
2021/12/28 07:39:22;;;;;;;12.23;8.05;;;;;;;0.06;75.89;99188.81;5029391;28;20083;-49
2021/12/28 07:41:47;;;;;;;10.95;7.45;;;;;;;0.06;76.12;99181.91;5030686;28;20048;-50
2021/12/28 07:44:12;;;;;;;12.18;8.77;;;;;;;0.06;75.89;99184.50;5024718;28;20034;-48
2021/12/28 07:46:38;;;;;;;11.77;8.13;;;;;;;0.06;75.66;99189.69;5028633;28;20292;-51
2021/12/28 07:49:03;;;;;;;9.35;7.07;;;;;;;0.07;76.26;99190.59;5029874;28;20028;-51
2021/12/28 07:51:28;;;;;;;11.25;8.35;;;;;;;0.07;75.82;99191.44;5011140;28;20360;-48
2021/12/28 07:53:54;;;;;;;9.48;7.22;;;;;;;0.07;76.20;99186.25;5004946;28;20108;-49
2021/12/28 07:56:19;;;;;;;10.25;7.45;;;;;;;0.08;75.87;99203.56;5030165;28;20021;-48
2021/12/28 07:58:45;;;;;;;11.70;7.53;;;;;;;0.07;76.27;99191.44;5033370;28;20108;-46
2021/12/28 08:01:10;;;;;;;11.35;8.55;;;;;;;0.08;76.13;99198.38;5036422;28;20025;-51
2021/12/28 08:03:35;;;;;;;10.65;7.28;;;;;;;0.08;76.18;99198.38;5036950;28;20036;-51
2021/12/28 08:06:00;;;;;;;13.15;7.22;;;;;;;0.08;76.25;99195.78;5030258;28;20022;-51
2021/12/28 08:08:26;;;;;;;8.38;7.03;;;;;;;0.09;75.96;99189.72;5030909;28;20018;-48
2021/12/28 08:10:51;;;;;;;10.65;7.18;;;;;;;0.06;76.10;99184.50;5017823;28;20036;-48
2021/12/28 08:13:17;;;;;;;13.13;8.32;;;;;;;0.09;75.93;99181.97;5031015;28;20017;-51
2021/12/28 08:15:43;;;;;;;10.23;7.57;;;;;;;0.09;76.25;99189.72;5036761;28;20103;-51
2021/12/28 08:18:09;;;;;;;11.80;7.78;;;;;;;0.09;76.32;99189.72;5009548;28;20049;-49
2021/12/28 08:20:36;;;;;;;12.63;8.18;;;;;;;0.13;76.12;99188.03;5028188;28;20052;-53
2021/12/28 08:23:01;;;;;;;18.67;10.60;;;;;;;0.21;76.95;99193.31;5051430;22;20545;-85
2021/12/28 08:25:27;;;;;;;21.38;11.43;;;;;;;0.19;77.74;99184.63;5005713;28;20030;-86
2021/12/28 08:27:53;;;;;;;23.08;13.82;;;;;;;0.21;78.72;99177.75;5009166;28;20033;-85
2021/12/28 08:30:19;;;;;;;21.38;12.80;;;;;;;0.22;79.04;99179.47;5008160;28;20060;-84
2021/12/28 08:32:45;;;;;;;20.23;12.80;;;;;;;0.11;80.22;99174.19;5013742;28;20040;-85
2021/12/28 08:35:11;;;;;;;20.55;13.80;;;;;;;0.21;80.99;99173.44;5014580;28;20096;-84
2021/12/28 08:37:37;;;;;;;21.10;11.75;;;;;;;0.15;80.27;99172.50;5012081;28;20029;-84
2021/12/28 08:40:03;;;;;;;19.30;12.63;;;;;;;0.14;80.00;99170.75;5025182;28;20025;-85
2021/12/28 08:42:29;;;;;;;23.02;12.88;;;;;;;0.13;79.72;99156.91;5002095;28;20022;-84
2021/12/28 08:44:54;;;;;;;18.52;11.43;;;;;;;0.12;79.54;99158.66;5001912;28;20041;-85
2021/12/28 08:47:22;;;;;;;26.08;12.73;;;;;;;0.14;79.56;99150.00;5028860;28;20025;-85
2021/12/28 08:49:55;;;;;;;18.90;11.93;;;;;;;0.16;78.94;99148.31;5011621;28;20075;-84
2021/12/28 08:52:21;;;;;;;15.82;11.52;;;;;;;0.15;79.36;99154.34;5007105;28;20021;-85
2021/12/28 08:54:46;;;;;;;19.73;11.15;;;;;;;0.17;78.98;99152.63;5029299;28;20380;-85
2021/12/28 08:57:12;;;;;;;17.65;11.18;;;;;;;0.13;78.50;99149.13;5024412;28;20091;-86
2021/12/28 08:59:37;;;;;;;19.33;11.30;;;;;;;0.12;78.86;99145.69;5018314;28;20037;-85
2021/12/28 09:02:03;;;;;;;16.15;11.63;;;;;;;0.15;78.59;99141.38;5008665;28;20399;-85
2021/12/28 09:04:28;;;;;;;18.38;11.25;;;;;;;0.16;78.20;99143.13;5008145;28;20021;-84
2021/12/28 09:07:05;;;;;;;17.50;10.88;;;;;;;0.15;77.91;99131.00;5045097;28;20108;-85
2021/12/28 09:09:30;;;;;;;15.25;10.52;;;;;;;0.18;78.21;99129.31;5010941;28;20068;-87
2021/12/28 09:11:55;;;;;;;17.02;12.23;;;;;;;0.17;77.92;99129.31;5002680;28;21023;-87
2021/12/28 09:14:21;;;;;;;19.48;10.52;;;;;;;0.14;77.91;99108.53;5022621;28;20029;-90
2021/12/28 09:16:46;;;;;;;13.77;10.48;;;;;;;0.16;78.17;99128.41;5022978;28;20071;-92
2021/12/28 09:19:11;;;;;;;15.48;10.50;;;;;;;0.18;78.27;99128.44;5011625;28;20033;-87
2021/12/28 09:21:37;;;;;;;16.58;11.40;;;;;;;0.20;77.68;99126.75;5025745;28;20025;-86
2021/12/28 09:24:04;;;;;;;17.38;10.93;;;;;;;0.15;78.03;99105.94;5005030;28;20100;-86
2021/12/28 09:26:30;;;;;;;15.27;9.90;;;;;;;0.21;77.47;99116.38;5026232;28;20095;-86
2021/12/28 09:28:55;;;;;;;14.57;11.00;;;;;;;0.21;77.52;99110.31;5011400;28;20662;-87
2021/12/28 09:31:20;;;;;;;16.30;10.95;;;;;;;0.26;77.53;99129.38;5008143;28;20022;-86
2021/12/28 09:33:46;;;;;;;15.52;10.90;;;;;;;0.22;77.37;99122.41;5004020;28;20126;-87
2021/12/28 09:36:14;;;;;;;16.35;11.15;;;;;;;0.19;78.08;99122.38;5007553;28;20104;-87
2021/12/28 09:38:40;;;;;;;18.70;10.05;;;;;;;0.19;77.75;99119.78;5011749;28;20031;-86
2021/12/28 09:41:05;;;;;;;17.67;11.18;;;;;;;0.19;78.17;99127.56;5027108;28;20017;-86
2021/12/28 09:43:48;;;;;;;14.05;10.48;;;;;;;0.21;77.83;99133.66;5032855;28;20074;-86
2021/12/28 09:46:14;;;;;;;17.35;11.07;;;;;;;0.23;77.67;99138.00;5021289;28;20399;-86
2021/12/28 09:48:39;;;;;;;18.08;11.90;;;;;;;0.22;77.72;99137.97;5008318;28;20021;-87
2021/12/28 09:51:06;;;;;;;17.65;10.35;;;;;;;0.27;77.83;99146.69;5030724;28;20086;-87
2021/12/28 09:53:31;;;;;;;15.25;10.32;;;;;;;0.24;78.08;99131.09;5013265;28;20040;-87
2021/12/28 09:55:57;;;;;;;18.02;10.55;;;;;;;0.23;77.79;99125.03;5029894;28;20025;-87
2021/12/28 09:58:22;;;;;;;19.40;11.32;;;;;;;0.22;78.35;99127.59;5013179;28;20029;-87
2021/12/28 10:00:47;;;;;;;16.00;10.70;;;;;;;0.24;78.11;99134.53;5007312;28;20080;-87
2021/12/28 10:03:14;;;;;;;15.25;10.32;;;;;;;0.27;78.40;99136.31;5019609;28;20025;-86
2021/12/28 10:05:39;;;;;;;15.15;10.30;;;;;;;0.24;78.39;99131.09;5028752;28;20025;-87
2021/12/28 10:08:06;;;;;;;13.93;10.55;;;;;;;0.24;78.26;99128.50;5012310;28;20036;-85
2021/12/28 10:10:38;;;;;;;12.77;9.75;;;;;;;0.27;78.24;99125.94;5014448;28;20027;-87
2021/12/28 10:13:06;;;;;;;16.50;10.80;;;;;;;0.24;78.19;99121.56;5005917;28;20052;-86
2021/12/28 10:15:40;;;;;;;16.75;10.85;;;;;;;0.25;78.54;99123.34;5033812;28;20013;-86
2021/12/28 10:18:10;;;;;;;15.05;9.98;;;;;;;0.22;78.29;99109.44;5006883;28;20555;-86
2021/12/28 10:20:40;;;;;;;13.77;10.33;;;;;;;0.27;78.70;99114.69;5013087;28;20074;-86
2021/12/28 10:23:11;;;;;;;17.05;10.45;;;;;;;0.24;78.47;99106.00;5037612;28;20029;-85
2021/12/28 10:25:40;;;;;;;15.07;9.95;;;;;;;0.29;78.47;99106.06;5016034;28;20028;-86
2021/12/28 10:28:15;;;;;;;14.50;9.55;;;;;;;0.29;78.48;99103.47;5020536;28;20024;-86
2021/12/28 10:30:49;;;;;;;15.00;10.25;;;;;;;0.29;78.92;99103.47;5021272;28;20021;-86
2021/12/28 10:33:17;;;;;;;14.80;10.90;;;;;;;0.31;78.67;99099.16;5012915;28;20024;-85
2021/12/28 10:35:46;;;;;;;14.05;10.27;;;;;;;0.31;78.92;99093.97;5025287;28;20022;-85
2021/12/28 10:38:16;;;;;;;14.35;10.07;;;;;;;0.31;78.86;99085.31;5007477;28;20425;-86
2021/12/28 10:40:44;;;;;;;13.68;10.05;;;;;;;0.32;78.47;99087.03;5013865;28;20044;-86
2021/12/28 10:43:21;;;;;;;13.25;10.02;;;;;;;0.26;78.94;99072.31;5000539;28;20071;-86
2021/12/28 10:45:51;;;;;;;13.88;9.02;;;;;;;0.33;78.41;99083.63;5048715;28;20051;-85
2021/12/28 10:48:22;;;;;;;13.20;9.57;;;;;;;0.35;78.36;99076.69;5016706;28;20111;-85
2021/12/28 10:51:02;;;;;;;15.77;10.18;;;;;;;0.34;78.51;99070.63;5015670;28;20802;-87
2021/12/28 10:53:37;;;;;;;13.90;9.00;;;;;;;0.33;78.47;99068.91;5004583;28;20072;-87
2021/12/28 10:56:06;;;;;;;15.00;10.27;;;;;;;0.34;78.34;99062.84;5007941;28;20275;-86
2021/12/28 10:58:43;;;;;;;15.43;10.32;;;;;;;0.36;78.57;99061.16;5012682;28;20021;-87
2021/12/28 11:01:12;;;;;;;13.57;9.00;;;;;;;0.37;78.16;99068.06;5008542;28;20071;-87
2021/12/28 11:03:40;;;;;;;16.65;10.40;;;;;;;0.37;78.39;99060.28;5007974;28;20021;-87
2021/12/28 11:06:15;;;;;;;13.65;9.52;;;;;;;0.36;78.48;99052.50;5011000;28;20144;-87
2021/12/28 11:09:05;;;;;;;14.60;10.30;;;;;;;0.42;78.53;99056.84;5008748;28;20080;-87
2021/12/28 11:11:30;;;;;;;12.13;9.13;;;;;;;0.37;78.77;99034.34;5010671;28;20086;-87
2021/12/28 11:14:01;;;;;;;11.88;9.25;;;;;;;0.40;78.75;99043.03;5010624;28;20072;-87
2021/12/28 11:16:29;;;;;;;13.48;8.75;;;;;;;0.38;79.52;99030.03;5021929;28;20021;-88
2021/12/28 11:18:59;;;;;;;12.32;9.00;;;;;;;0.35;79.33;99030.88;5013166;28;20115;-87
2021/12/28 11:21:27;;;;;;;16.75;10.20;;;;;;;0.34;79.70;99017.91;5015789;28;20035;-87
2021/12/28 11:23:55;;;;;;;14.20;8.77;;;;;;;0.37;79.40;99018.78;5018495;28;20032;-87
2021/12/28 11:26:26;;;;;;;12.10;8.30;;;;;;;0.34;79.95;99002.34;5026995;28;20030;-87
2021/12/28 11:28:59;;;;;;;12.05;8.82;;;;;;;0.31;79.55;99008.38;5019857;28;20029;-87
2021/12/28 11:31:34;;;;;;;14.27;7.85;;;;;;;0.35;79.89;99004.94;5010259;28;20475;-87